TAF Italia - 12 Dec 2017 - 2347 UTC - RocketRoute WX - rrwx.com
LIEA 121700Z 1218/1318 VRB05KT 6000 SCT016 BKN030 TEMPO 1218/1224 SHRA BECMG 1305/1307 29012KT BECMG 1215/1218 22010KT LIBD 121700Z 1218/1318 18008KT 9999 SCT030 TEMPO 1309/1316 RA LIME 121700Z 1218/1318 VRB05KT 4000 BR NSC TEMPO 1222/1307 2000 BCFG LIPE 121700Z 1218/1318 VRB05KT 7000 FEW050 BECMG 1220/1222 3000 BR TEMPO 1300/1308 0600 FG BECMG 1308/1310 5000 BECMG 1316/1318 3000 LIRN 121700Z 1218/1318 19013KT 7000 SCT020 BKN040 BECMG 1307/1309 26013KT TEMPO 1308/1312 SHRA LICC 121700Z 1218/1318 25008KT 9999 SCT030 LIRA 121700Z 1218/1318 18010KT 6000 SCT015 BKN030 TEMPO 1218/1306 3000 SHRA BECMG 1221/1223 VRB05KT LIBC 121700Z 1218/1318 22015KT 9999 SCT030 LIEE 121700Z 1218/1318 33012KT 9999 SCT040 TEMPO 1218/1221 RA LIPY 121700Z 1218/1318 VRB05KT 9999 SCT030 TEMPO 1218/1306 RA LIRF 121700Z 1218/1324 21012KT 6000 SCT012 BKN030 TEMPO 1218/1306 3000 SHRA BKN013 BKN030 BECMG 1221/1223 29010KT LIMJ 121700Z 1218/1318 19010KT 9999 BKN040 BECMG 1222/1224 03005KT LICD 121700Z 1218/1318 20016KT CAVOK BECMG 1309/1312 36015KT LIML 121700Z 1218/1318 VRB05KT 0500 FG NSC TEMPO 1222/1308 0200 FZFG BKN005 BECMG 1309/1311 4000 BR LIMC AMD 121747Z 1218/1324 VRB05KT 4000 BR TEMPO 1222/1308 1500 BCFG LIEO 121700Z 1218/1318 VRB06KT 9999 FEW020 SCT040 TEMPO 1218/1224 RA BECMG 1303/1306 26015KT LICJ 121700Z 1218/1318 20015KT 9999 SCT030 BECMG 1309/1311 27010KT TEMPO 1312/1318 RA LIBP 121700Z 1218/1318 VRB06KT 9999 SCT030 TEMPO 1300/1309 4000 RA TEMPO 1309/1315 SHRA LIRP 121700Z 1218/1318 15005KT 9999 SCT030 SCT050 TEMPO 1218/1306 22010KT 5000 RA BR PROB30 TEMPO 1218/1224 3000 SHRA FEW020CB BKN030 LICR 121700Z 1218/1318 20015KT 9999 SCT030 BECMG 1219/1221 VRB05KT BECMG 1310/1312 01010KT LIMF 121700Z 1218/1318 VRB05KT 3000 BR NSC TEMPO 1222/1307 0400 FZFG LIRU 121400Z 1215/1224 16012KT 6000 SCT020 BECMG 1215/1218 VRB05KT TEMPO 1215/1224 4000 SHRA LIPZ 121700Z 1218/1324 VRB05KT 7000 SCT040 BECMG 1218/1220 3000 BR BKN010 TEMPO 1300/1308 0800 FG BECMG 1306/1309 03012KT SCT025 BECMG 1316/1318 VRB05KT

RocketRoute WX - rrwx.com weather for pilots